Station Historical Data
Daily Summary for February 12, 2019 Units:  English    Metric   Both
« Previous Day
Next Day »
Daily Weekly Monthly Yearly Custom
  High: Low: Average:
Temperature: TemperatureC °F 3.9 °F 9.1 °F
Dew Point: DewpointC °F -7.8 °F -3.8 °F
Humidity: Humidity % 28 % 41 %
Wind Speed: WindSpeedKMH mph 1.9 mph 14.5 mph
Wind Gust: WindSpeedGustKMH mph - -
Wind:- - WSW
Pressure: PressurehPa in 1020.3 in -
Precipitation: 0.0 in    
Historical Graphs
 
 
Tabular Data for February 12, 2019
Time Temperature Dew Point Pressure Wind Wind Speed Wind Gust Humidity Rainfall Rate (Hourly) solar Conditions
TemperatureC °F DewpointC °F PressurehPa in Calm     Humidity % HourlyPrecipMM in SolarRadiationWatts/m^2 W/m2 Conditions
00:03 9.4 °F -7.3 °F 1020.3 in NW 22.5 mph 14.6 mph 30 % 0.0 in 0.00 W/m2 CLR
00:08 9.3 °F -6.9 °F 1020.4 in WNW 20.9 mph 13.7 mph 31 % 0.0 in 0.00 W/m2 CLR
00:13 9.2 °F -7.5 °F 1020.6 in NW 24.1 mph 17.2 mph 30 % 0.0 in 0.00 W/m2 CLR
00:18 9.2 °F -7.1 °F 1020.6 in WNW 19.3 mph 15.9 mph 31 % 0.0 in 0.00 W/m2 CLR
00:23 9.2 °F -7.1 °F 1020.4 in WNW 25.7 mph 19.0 mph 31 % 0.0 in 0.00 W/m2 CLR
00:28 9.2 °F -7.1 °F 1020.7 in NW 19.3 mph 12.7 mph 31 % 0.0 in 0.00 W/m2 CLR
00:33 9.1 °F -7.2 °F 1020.8 in NW 25.9 mph 18.8 mph 31 % 0.0 in 0.00 W/m2 CLR
00:38 9.1 °F -7.2 °F 1020.9 in WNW 22.5 mph 16.7 mph 31 % 0.0 in 0.00 W/m2 CLR
00:44 9.1 °F -7.2 °F 1020.7 in NNW 20.9 mph 14.2 mph 31 % 0.0 in 0.00 W/m2 CLR
00:48 9.1 °F -7.2 °F 1021.0 in NNW 22.2 mph 12.9 mph 31 % 0.0 in 0.00 W/m2 CLR
00:53 9.1 °F -7.2 °F 1021.0 in WNW 19.3 mph 13.2 mph 31 % 0.0 in 0.00 W/m2 CLR
00:59 9.1 °F -7.2 °F 1021.0 in WNW 25.9 mph 13.5 mph 31 % 0.0 in 0.00 W/m2 CLR
01:03 9.0 °F -7.3 °F 1021.0 in NW 22.5 mph 16.6 mph 31 % 0.0 in 0.00 W/m2 CLR
01:08 9.1 °F -7.2 °F 1020.9 in NNW 17.7 mph 10.3 mph 31 % 0.0 in 0.00 W/m2 CLR
01:14 9.1 °F -7.2 °F 1021.1 in NW 18.5 mph 12.1 mph 31 % 0.0 in 0.00 W/m2 CLR
01:18 9.1 °F -7.2 °F 1021.0 in NW 20.9 mph 13.2 mph 31 % 0.0 in 0.00 W/m2 CLR
01:23 9.2 °F -7.5 °F 1021.0 in NW 24.1 mph 17.4 mph 30 % 0.0 in 0.00 W/m2 CLR
01:29 9.3 °F -7.4 °F 1021.1 in NW 18.5 mph 13.2 mph 30 % 0.0 in 0.00 W/m2 CLR
01:34 9.3 °F -7.4 °F 1021.3 in NW 18.5 mph 12.4 mph 30 % 0.0 in 0.00 W/m2 CLR
01:38 9.4 °F -7.8 °F 1021.4 in NW 18.5 mph 11.4 mph 29 % 0.0 in 0.00 W/m2 CLR
01:44 9.4 °F -7.7 °F 1021.3 in NNW 20.9 mph 14.3 mph 29 % 0.0 in 0.00 W/m2 CLR
01:49 9.5 °F -7.7 °F 1021.3 in NNW 20.9 mph 16.4 mph 29 % 0.0 in 0.00 W/m2 CLR
01:53 9.5 °F -7.7 °F 1021.3 in NNW 18.5 mph 11.3 mph 29 % 0.0 in 0.00 W/m2 CLR
01:59 9.4 °F -7.7 °F 1021.3 in NW 13.0 mph 9.2 mph 29 % 0.0 in 0.00 W/m2 CLR
02:04 9.5 °F -7.7 °F 1021.3 in NNW 27.8 mph 15.9 mph 29 % 0.0 in 0.00 W/m2 CLR
02:09 9.6 °F -7.6 °F 1021.4 in WNW 20.9 mph 15.9 mph 29 % 0.0 in 0.00 W/m2 CLR
02:14 9.5 °F -7.7 °F 1021.3 in NW 14.8 mph 12.9 mph 29 % 0.0 in 0.00 W/m2 CLR
02:19 9.4 °F -7.3 °F 1021.3 in NW 16.7 mph 11.9 mph 30 % 0.0 in 0.00 W/m2 CLR
02:24 9.3 °F -7.4 °F 1021.3 in NW 13.0 mph 10.6 mph 30 % 0.0 in 0.00 W/m2 CLR
02:29 9.1 °F -7.2 °F 1021.3 in WNW 18.5 mph 11.6 mph 31 % 0.0 in 0.00 W/m2 CLR
02:33 9.0 °F -7.3 °F 1021.3 in WNW 17.7 mph 11.6 mph 31 % 0.0 in 0.00 W/m2 CLR
02:38 8.9 °F -7.3 °F 1021.3 in WNW 18.5 mph 14.6 mph 31 % 0.0 in 0.00 W/m2 CLR
02:43 8.8 °F -7.0 °F 1021.4 in NW 18.5 mph 11.6 mph 32 % 0.0 in 0.00 W/m2 CLR
02:48 8.8 °F -7.1 °F 1021.4 in WNW 17.7 mph 12.6 mph 32 % 0.0 in 0.00 W/m2 CLR
02:53 8.7 °F -6.7 °F 1021.5 in WNW 16.7 mph 9.7 mph 33 % 0.0 in 0.00 W/m2 CLR
02:58 8.6 °F -6.8 °F 1021.5 in North 16.7 mph 11.6 mph 33 % 0.0 in 0.00 W/m2 CLR
03:03 8.4 °F -6.9 °F 1021.5 in NNW 17.7 mph 10.8 mph 33 % 0.0 in 0.00 W/m2 CLR
03:08 8.4 °F -6.6 °F 1021.5 in NW 13.0 mph 9.3 mph 34 % 0.0 in 0.00 W/m2 CLR
03:13 8.3 °F -6.7 °F 1021.5 in NW 14.8 mph 10.8 mph 34 % 0.0 in 0.00 W/m2 CLR
03:18 8.2 °F -6.7 °F 1021.6 in WNW 14.5 mph 10.5 mph 34 % 0.0 in 0.00 W/m2 CLR
03:24 8.1 °F -6.8 °F 1021.6 in NW 13.0 mph 8.4 mph 34 % 0.0 in 0.00 W/m2 CLR
03:28 8.1 °F -6.5 °F 1021.6 in NW 11.1 mph 7.6 mph 35 % 0.0 in 0.00 W/m2 CLR
03:33 7.9 °F -6.6 °F 1021.4 in NW 9.7 mph 6.1 mph 35 % 0.0 in 0.00 W/m2 CLR
03:39 7.8 °F -6.7 °F 1021.3 in WNW 8.0 mph 6.6 mph 35 % 0.0 in 0.00 W/m2 CLR
03:43 7.8 °F -6.4 °F 1021.4 in NW 9.7 mph 6.3 mph 36 % 0.0 in 0.00 W/m2 CLR
03:48 7.7 °F -6.4 °F 1021.7 in NW 11.3 mph 6.8 mph 36 % 0.0 in 0.00 W/m2 CLR
03:54 7.6 °F -6.6 °F 1021.6 in NW 9.7 mph 7.7 mph 36 % 0.0 in 0.00 W/m2 CLR
03:58 7.6 °F -6.6 °F 1021.6 in NW 13.0 mph 9.0 mph 36 % 0.0 in 0.00 W/m2 CLR
04:04 7.6 °F -6.6 °F 1021.6 in NW 9.3 mph 6.6 mph 36 % 0.0 in 0.00 W/m2 CLR
04:09 7.5 °F -6.3 °F 1021.8 in NW 9.7 mph 7.7 mph 37 % 0.0 in 0.00 W/m2 CLR
04:13 7.5 °F -6.3 °F 1021.7 in NW 9.7 mph 7.4 mph 37 % 0.0 in 0.00 W/m2 CLR
04:19 7.5 °F -6.3 °F 1021.8 in NW 9.7 mph 7.7 mph 37 % 0.0 in 0.00 W/m2 CLR
04:24 7.5 °F -6.3 °F 1021.8 in WNW 9.7 mph 7.1 mph 37 % 0.0 in 0.00 W/m2 CLR
04:28 7.4 °F -6.3 °F 1021.9 in WNW 9.3 mph 6.9 mph 37 % 0.0 in 0.00 W/m2 CLR
04:34 7.4 °F -6.4 °F 1021.9 in WNW 14.8 mph 8.0 mph 37 % 0.0 in 0.00 W/m2 CLR
04:39 7.3 °F -6.4 °F 1022.0 in NW 13.0 mph 9.5 mph 37 % 0.0 in 0.00 W/m2 CLR
04:43 7.4 °F -6.4 °F 1022.0 in NW 14.5 mph 9.3 mph 37 % 0.0 in 0.00 W/m2 CLR
04:49 7.4 °F -6.3 °F 1022.0 in WNW 17.7 mph 13.4 mph 37 % 0.0 in 0.00 W/m2 CLR
04:54 7.6 °F -6.6 °F 1021.9 in NNW 16.7 mph 13.8 mph 36 % 0.0 in 0.00 W/m2 CLR
04:59 7.7 °F -6.5 °F 1022.1 in NW 17.7 mph 13.2 mph 36 % 0.0 in 0.00 W/m2 CLR
05:04 7.7 °F -6.5 °F 1022.2 in NNW 16.7 mph 13.4 mph 36 % 0.0 in 0.00 W/m2 CLR
05:08 7.7 °F -6.5 °F 1022.2 in NW 16.7 mph 12.7 mph 36 % 0.0 in 0.00 W/m2 CLR
05:13 7.8 °F -6.8 °F 1022.1 in NW 22.2 mph 15.6 mph 35 % 0.0 in 0.00 W/m2 CLR
05:18 7.9 °F -6.6 °F 1022.2 in NW 19.3 mph 15.3 mph 35 % 0.0 in 0.00 W/m2 CLR
05:23 8.1 °F -6.5 °F 1022.4 in NW 12.9 mph 9.2 mph 35 % 0.0 in 0.00 W/m2 CLR
05:28 8.1 °F -6.8 °F 1022.3 in NW 11.3 mph 7.2 mph 34 % 0.0 in 0.00 W/m2 CLR
05:33 8.2 °F -6.7 °F 1022.4 in NW 9.7 mph 6.0 mph 34 % 0.0 in 0.00 W/m2 CLR
05:38 8.3 °F -7.1 °F 1022.3 in NW 9.7 mph 5.1 mph 33 % 0.0 in 0.00 W/m2 CLR
05:44 8.4 °F -7.4 °F 1022.1 in SW 8.0 mph 4.3 mph 32 % 0.0 in 0.00 W/m2 CLR
05:48 8.3 °F -6.7 °F 1022.2 in WSW 6.4 mph 5.1 mph 34 % 0.0 in 0.00 W/m2 CLR
05:53 8.0 °F -6.6 °F 1022.1 in NW 12.9 mph 8.0 mph 35 % 0.0 in 0.00 W/m2 CLR
05:59 7.8 °F -7.1 °F 1022.1 in NNW 13.0 mph 8.2 mph 34 % 0.0 in 0.00 W/m2 CLR
06:03 7.8 °F -6.8 °F 1022.2 in NW 5.6 mph 3.5 mph 35 % 0.0 in 0.00 W/m2 CLR
06:08 7.7 °F -6.8 °F 1022.2 in NNW 5.6 mph 1.4 mph 35 % 0.0 in 0.00 W/m2 CLR
06:14 7.7 °F -6.8 °F 1022.2 in NNW 1.9 mph 0.5 mph 35 % 0.0 in 0.00 W/m2 CLR
06:18 7.6 °F -6.9 °F 1022.2 in NNW 3.7 mph 2.6 mph 35 % 0.0 in 0.00 W/m2 CLR
06:23 7.4 °F -6.7 °F 1022.5 in NNW 3.2 mph 1.3 mph 36 % 0.0 in 0.00 W/m2 CLR
06:29 7.2 °F -6.5 °F 1022.7 in West 5.6 mph 3.5 mph 37 % 0.0 in 0.00 W/m2 CLR
06:33 7.1 °F -6.7 °F 1022.5 in SW 5.6 mph 3.1 mph 37 % 0.0 in 0.00 W/m2 CLR
06:38 6.9 °F -6.5 °F 1022.5 in NW 7.4 mph 1.9 mph 38 % 0.0 in 0.00 W/m2 CLR
06:44 6.7 °F -6.3 °F 1022.6 in NW 1.9 mph 1.0 mph 39 % 0.0 in 0.00 W/m2 CLR
06:48 6.4 °F -5.9 °F 1022.6 in ESE 5.6 mph 4.0 mph 41 % 0.0 in 0.00 W/m2 CLR
06:53 5.9 °F -5.8 °F 1022.7 in SE 3.7 mph 1.1 mph 43 % 0.0 in 0.00 W/m2 CLR
06:59 5.7 °F -5.9 °F 1022.7 in SE 1.9 mph 1.6 mph 43 % 0.0 in 0.00 W/m2 CLR
07:04 5.5 °F -6.4 °F 1022.7 in SW 5.6 mph 3.9 mph 42 % 0.0 in 0.00 W/m2 CLR
07:09 5.5 °F -6.4 °F 1022.7 in SW 5.6 mph 3.7 mph 42 % 0.0 in 0.00 W/m2 CLR
07:14 5.6 °F -6.3 °F 1022.7 in WSW 6.4 mph 4.8 mph 42 % 0.0 in 0.00 W/m2 CLR
07:19 5.7 °F -5.9 °F 1022.7 in West 6.4 mph 5.5 mph 43 % 0.0 in 0.00 W/m2 CLR
07:24 5.7 °F -6.3 °F 1022.7 in West 5.6 mph 4.5 mph 42 % 0.0 in 0.00 W/m2 CLR
07:29 5.8 °F -6.5 °F 1022.7 in West 5.6 mph 2.9 mph 41 % 0.0 in 5.00 W/m2 CLR
07:34 5.9 °F -6.7 °F 1022.8 in West 8.0 mph 5.3 mph 40 % 0.0 in 7.00 W/m2 CLR
07:39 5.9 °F -5.8 °F 1023.0 in SSW 6.4 mph 5.0 mph 43 % 0.0 in 7.00 W/m2 SCT
07:43 5.5 °F -5.5 °F 1023.2 in SSW 3.7 mph 2.1 mph 45 % 0.0 in 9.00 W/m2 SCT
07:48 5.2 °F -5.5 °F 1023.2 in SSW 3.7 mph 2.3 mph 46 % 0.0 in 11.00 W/m2 SCT
07:53 5.1 °F -5.9 °F 1023.2 in WSW 5.6 mph 3.7 mph 45 % 0.0 in 14.00 W/m2 SCT
07:58 5.2 °F -6.1 °F 1023.1 in WSW 5.6 mph 4.2 mph 44 % 0.0 in 23.00 W/m2 SCT
08:03 5.4 °F -5.8 °F 1023.2 in WSW 8.0 mph 6.6 mph 44 % 0.0 in 33.00 W/m2 SCT
08:08 5.7 °F -5.9 °F 1023.2 in SW 11.3 mph 9.2 mph 43 % 0.0 in 40.00 W/m2 SCT
08:13 5.8 °F -5.5 °F 1023.2 in SW 11.1 mph 6.1 mph 44 % 0.0 in 49.00 W/m2 SCT
08:18 5.7 °F -5.1 °F 1023.3 in WSW 11.3 mph 8.8 mph 46 % 0.0 in 54.00 W/m2 SCT
08:23 5.3 °F -4.9 °F 1023.4 in SW 19.3 mph 11.7 mph 48 % 0.0 in 62.00 W/m2 SCT
08:28 4.7 °F -4.6 °F 1023.3 in WSW 19.3 mph 11.4 mph 51 % 0.0 in 79.00 W/m2 FEW
08:33 4.3 °F -4.7 °F 1023.4 in SW 19.3 mph 11.7 mph 52 % 0.0 in 98.00 W/m2 FEW
08:39 3.9 °F -4.6 °F 1023.5 in WSW 18.5 mph 13.4 mph 54 % 0.0 in 111.00 W/m2 FEW
08:43 3.9 °F -4.6 °F 1023.4 in WSW 14.5 mph 9.0 mph 54 % 0.0 in 104.00 W/m2 FEW
08:48 4.0 °F -4.2 °F 1023.5 in WSW 11.3 mph 6.8 mph 55 % 0.0 in 127.00 W/m2 FEW
08:54 4.2 °F -4.3 °F 1023.6 in West 14.8 mph 10.5 mph 54 % 0.0 in 142.00 W/m2 FEW
08:58 4.4 °F -4.4 °F 1023.6 in SW 17.7 mph 12.2 mph 53 % 0.0 in 148.00 W/m2 FEW
09:04 4.7 °F -4.4 °F 1023.4 in SW 19.3 mph 12.4 mph 52 % 0.0 in 156.00 W/m2 FEW
09:09 4.8 °F -4.4 °F 1023.4 in West 19.3 mph 14.2 mph 51 % 0.0 in 146.00 W/m2 FEW
09:13 4.9 °F -4.2 °F 1023.5 in WSW 20.9 mph 13.5 mph 52 % 0.0 in 162.00 W/m2 FEW
09:19 5.0 °F -4.1 °F 1023.5 in WSW 11.3 mph 8.7 mph 52 % 0.0 in 163.00 W/m2 FEW
09:24 5.1 °F -4.0 °F 1023.6 in West 18.5 mph 12.7 mph 52 % 0.0 in 197.00 W/m2 FEW
09:28 5.1 °F -3.7 °F 1023.7 in WSW 19.3 mph 12.9 mph 53 % 0.0 in 211.00 W/m2 FEW
09:34 5.1 °F -3.5 °F 1023.7 in WSW 20.9 mph 15.3 mph 54 % 0.0 in 225.00 W/m2 FEW
09:39 5.1 °F -3.5 °F 1023.7 in SSW 20.4 mph 13.5 mph 54 % 0.0 in 246.00 W/m2 FEW
09:43 5.2 °F -3.4 °F 1023.8 in SW 25.7 mph 20.1 mph 54 % 0.0 in 253.00 W/m2 FEW
09:49 5.3 °F -3.2 °F 1023.8 in West 19.3 mph 13.0 mph 54 % 0.0 in 260.00 W/m2 CLR
09:54 5.6 °F -3.2 °F 1023.7 in WSW 19.3 mph 11.9 mph 53 % 0.0 in 318.00 W/m2 CLR
09:58 5.8 °F -3.3 °F 1023.6 in SW 18.5 mph 7.6 mph 52 % 0.0 in 338.00 W/m2 CLR
10:04 6.1 °F -3.0 °F 1023.5 in WSW 16.1 mph 10.5 mph 52 % 0.0 in 338.00 W/m2 CLR
10:09 6.4 °F -3.5 °F 1023.6 in SW 22.2 mph 15.4 mph 49 % 0.0 in 343.00 W/m2 CLR
10:14 6.7 °F -3.8 °F 1023.7 in SW 19.3 mph 13.5 mph 47 % 0.0 in 281.00 W/m2 CLR
10:18 6.9 °F -3.7 °F 1023.7 in WSW 18.5 mph 9.5 mph 47 % 0.0 in 257.00 W/m2 CLR
10:23 7.1 °F -3.5 °F 1023.6 in WSW 22.2 mph 13.8 mph 47 % 0.0 in 239.00 W/m2 FEW
10:28 7.0 °F -3.6 °F 1023.6 in SW 22.5 mph 16.9 mph 47 % 0.0 in 264.00 W/m2 SCT
10:33 6.8 °F -3.7 °F 1023.6 in WSW 19.3 mph 10.8 mph 47 % 0.0 in 301.00 W/m2 FEW
10:38 6.8 °F -3.7 °F 1023.5 in SW 18.5 mph 11.7 mph 47 % 0.0 in 359.00 W/m2 FEW
10:43 6.9 °F -3.6 °F 1023.4 in South 22.2 mph 13.5 mph 47 % 0.0 in 424.00 W/m2 CLR
10:48 7.2 °F -3.3 °F 1023.4 in SSW 14.8 mph 9.3 mph 47 % 0.0 in 415.00 W/m2 CLR
10:53 7.5 °F -4.3 °F 1023.3 in WSW 24.1 mph 13.8 mph 43 % 0.0 in 411.00 W/m2 CLR
10:59 7.7 °F -3.8 °F 1023.4 in SW 18.5 mph 13.7 mph 44 % 0.0 in 371.00 W/m2 CLR
11:03 7.8 °F -3.7 °F 1023.4 in WSW 24.1 mph 15.8 mph 44 % 0.0 in 408.00 W/m2 CLR
11:08 7.9 °F -3.6 °F 1023.4 in SW 27.8 mph 19.8 mph 44 % 0.0 in 415.00 W/m2 CLR
11:14 8.1 °F -3.4 °F 1023.4 in West 22.5 mph 14.6 mph 44 % 0.0 in 438.00 W/m2 CLR
11:18 8.4 °F -3.8 °F 1023.4 in West 17.7 mph 10.8 mph 42 % 0.0 in 424.00 W/m2 CLR
11:23 8.6 °F -3.9 °F 1023.3 in SW 25.7 mph 18.2 mph 41 % 0.0 in 397.00 W/m2 CLR
11:29 8.7 °F -3.8 °F 1023.3 in SW 20.4 mph 16.4 mph 41 % 0.0 in 455.00 W/m2 CLR
11:33 8.9 °F -3.9 °F 1023.1 in SW 27.8 mph 18.8 mph 40 % 0.0 in 469.00 W/m2 CLR
11:38 9.2 °F -4.1 °F 1023.0 in SSW 25.9 mph 17.9 mph 39 % 0.0 in 497.00 W/m2 CLR
11:44 9.3 °F -3.9 °F 1023.0 in WSW 22.5 mph 16.7 mph 39 % 0.0 in 497.00 W/m2 CLR
11:49 9.6 °F -3.4 °F 1023.0 in West 18.5 mph 11.7 mph 40 % 0.0 in 497.00 W/m2 CLR
11:53 9.7 °F -3.3 °F 1023.0 in SW 24.1 mph 18.8 mph 40 % 0.0 in 506.00 W/m2 CLR
11:59 9.8 °F -3.5 °F 1022.9 in WSW 29.6 mph 17.2 mph 39 % 0.0 in 506.00 W/m2 CLR
12:04 9.9 °F -3.4 °F 1022.9 in WSW 20.4 mph 10.8 mph 39 % 0.0 in 504.00 W/m2 CLR
12:08 10.1 °F -3.2 °F 1022.8 in WSW 29.0 mph 22.5 mph 39 % 0.0 in 513.00 W/m2 CLR
12:14 10.3 °F -2.8 °F 1022.7 in West 19.3 mph 12.1 mph 40 % 0.0 in 510.00 W/m2 CLR
12:19 10.6 °F -2.8 °F 1022.5 in West 25.9 mph 15.9 mph 39 % 0.0 in 520.00 W/m2 CLR
12:23 10.8 °F -3.0 °F 1022.7 in West 20.4 mph 14.6 mph 38 % 0.0 in 499.00 W/m2 CLR
12:29 11.1 °F -3.1 °F 1022.6 in WSW 29.6 mph 16.1 mph 37 % 0.0 in 455.00 W/m2 CLR
12:34 11.3 °F -3.3 °F 1022.5 in WSW 31.5 mph 18.8 mph 36 % 0.0 in 424.00 W/m2 CLR
12:38 11.3 °F -2.9 °F 1022.4 in West 20.4 mph 15.4 mph 37 % 0.0 in 420.00 W/m2 CLR
12:44 11.4 °F -2.8 °F 1022.3 in WNW 16.7 mph 12.6 mph 37 % 0.0 in 413.00 W/m2 CLR
12:48 11.5 °F -2.7 °F 1022.2 in WSW 22.2 mph 12.2 mph 37 % 0.0 in 408.00 W/m2 FEW
12:54 11.8 °F -2.4 °F 1022.2 in WSW 22.5 mph 13.5 mph 37 % 0.0 in 396.00 W/m2 FEW
12:58 12.0 °F -3.0 °F 1022.2 in WSW 24.1 mph 19.6 mph 35 % 0.0 in 369.00 W/m2 FEW
13:03 12.1 °F -2.6 °F 1022.1 in SW 14.5 mph 6.9 mph 36 % 0.0 in 364.00 W/m2 FEW
13:09 12.3 °F -2.7 °F 1022.0 in WNW 20.9 mph 12.9 mph 35 % 0.0 in 410.00 W/m2 FEW
13:13 12.5 °F -2.9 °F 1022.1 in WSW 19.3 mph 14.2 mph 34 % 0.0 in 436.00 W/m2 FEW
13:18 12.7 °F -3.2 °F 1021.9 in WSW 25.7 mph 17.9 mph 33 % 0.0 in 506.00 W/m2 CLR
13:24 12.9 °F -4.2 °F 1021.8 in WSW 24.1 mph 13.8 mph 30 % 0.0 in 508.00 W/m2 CLR
13:28 13.2 °F -3.6 °F 1021.7 in SW 22.5 mph 15.6 mph 31 % 0.0 in 506.00 W/m2 CLR
13:33 13.3 °F -3.4 °F 1021.8 in NW 25.9 mph 14.6 mph 31 % 0.0 in 503.00 W/m2 CLR
13:39 13.5 °F -3.8 °F 1021.7 in WNW 22.5 mph 12.4 mph 30 % 0.0 in 499.00 W/m2 CLR
13:43 13.6 °F -4.6 °F 1021.7 in SW 25.7 mph 17.4 mph 28 % 0.0 in 499.00 W/m2 CLR
13:48 13.6 °F -4.6 °F 1021.6 in West 33.3 mph 15.1 mph 28 % 0.0 in 490.00 W/m2 CLR
13:54 13.6 °F -3.7 °F 1021.7 in WSW 25.9 mph 15.6 mph 30 % 0.0 in 485.00 W/m2 CLR
13:58 13.6 °F -3.3 °F 1021.6 in West 25.9 mph 15.3 mph 31 % 0.0 in 478.00 W/m2 CLR
14:03 13.6 °F -3.3 °F 1021.6 in SW 27.8 mph 15.6 mph 31 % 0.0 in 473.00 W/m2 CLR
14:09 13.6 °F -3.3 °F 1021.5 in SW 18.5 mph 12.4 mph 31 % 0.0 in 457.00 W/m2 CLR
14:13 13.6 °F -2.8 °F 1021.6 in WSW 22.5 mph 18.2 mph 32 % 0.0 in 455.00 W/m2 CLR
14:18 13.6 °F -2.8 °F 1021.6 in SW 25.9 mph 15.3 mph 32 % 0.0 in 448.00 W/m2 CLR
14:24 13.6 °F -2.8 °F 1021.6 in SW 27.8 mph 18.5 mph 32 % 0.0 in 432.00 W/m2 CLR
14:29 13.7 °F -2.8 °F 1021.6 in WSW 27.8 mph 16.6 mph 32 % 0.0 in 448.00 W/m2 CLR
14:33 13.7 °F -2.8 °F 1021.5 in SW 22.2 mph 14.3 mph 32 % 0.0 in 408.00 W/m2 CLR
14:39 13.7 °F -3.2 °F 1021.4 in SW 25.9 mph 15.4 mph 31 % 0.0 in 396.00 W/m2 CLR
14:44 13.7 °F -3.1 °F 1021.4 in SSW 24.1 mph 15.4 mph 31 % 0.0 in 364.00 W/m2 CLR
14:48 13.8 °F -3.1 °F 1021.5 in West 22.5 mph 16.4 mph 31 % 0.0 in 253.00 W/m2 CLR
14:54 13.8 °F -3.1 °F 1021.4 in SW 14.5 mph 9.7 mph 31 % 0.0 in 297.00 W/m2 FEW
14:59 13.9 °F -3.0 °F 1021.4 in West 16.1 mph 11.7 mph 31 % 0.0 in 320.00 W/m2 FEW
15:04 13.9 °F -2.5 °F 1021.2 in West 19.3 mph 12.7 mph 32 % 0.0 in 359.00 W/m2 CLR
15:09 13.9 °F -2.6 °F 1021.2 in WSW 24.1 mph 15.1 mph 32 % 0.0 in 327.00 W/m2 CLR
15:14 13.9 °F -2.5 °F 1021.2 in WSW 20.9 mph 15.0 mph 32 % 0.0 in 285.00 W/m2 CLR
15:18 14.0 °F -2.9 °F 1021.1 in WSW 25.9 mph 16.3 mph 31 % 0.0 in 345.00 W/m2 CLR
15:23 14.1 °F -2.8 °F 1021.1 in WNW 25.7 mph 13.2 mph 31 % 0.0 in 283.00 W/m2 CLR
15:28 14.2 °F -2.7 °F 1021.0 in West 22.5 mph 16.7 mph 31 % 0.0 in 288.00 W/m2 CLR
15:33 14.3 °F -2.2 °F 1021.1 in WSW 17.7 mph 8.8 mph 32 % 0.0 in 345.00 W/m2 CLR
15:38 14.4 °F -2.1 °F 1021.2 in West 24.1 mph 17.2 mph 32 % 0.0 in 334.00 W/m2 CLR
15:43 14.3 °F -2.6 °F 1021.1 in West 27.8 mph 15.3 mph 31 % 0.0 in 313.00 W/m2 CLR
15:48 14.3 °F -2.2 °F 1021.3 in WSW 18.5 mph 12.1 mph 32 % 0.0 in 336.00 W/m2 CLR
15:53 14.5 °F -2.0 °F 1021.3 in West 24.1 mph 13.7 mph 32 % 0.0 in 341.00 W/m2 CLR
15:58 14.6 °F -1.9 °F 1021.3 in NW 18.5 mph 12.2 mph 32 % 0.0 in 306.00 W/m2 CLR
16:03 14.6 °F -1.9 °F 1021.3 in West 16.7 mph 12.1 mph 32 % 0.0 in 292.00 W/m2 CLR
16:08 14.5 °F -2.0 °F 1021.1 in WNW 22.5 mph 15.3 mph 32 % 0.0 in 295.00 W/m2 CLR
16:13 14.4 °F -2.1 °F 1021.3 in West 20.4 mph 10.0 mph 32 % 0.0 in 269.00 W/m2 CLR
16:18 14.5 °F -2.0 °F 1021.4 in WSW 13.0 mph 9.2 mph 32 % 0.0 in 253.00 W/m2 CLR
16:23 14.5 °F -2.0 °F 1021.5 in WSW 19.3 mph 13.0 mph 32 % 0.0 in 230.00 W/m2 CLR
16:29 14.4 °F -1.7 °F 1021.5 in West 14.8 mph 9.5 mph 33 % 0.0 in 202.00 W/m2 CLR
16:34 14.3 °F -1.3 °F 1021.6 in West 17.7 mph 10.8 mph 34 % 0.0 in 183.00 W/m2 CLR
16:38 14.3 °F -1.0 °F 1021.6 in West 19.3 mph 12.2 mph 35 % 0.0 in 165.00 W/m2 CLR
16:44 14.3 °F -1.0 °F 1021.7 in WSW 18.5 mph 11.6 mph 35 % 0.0 in 137.00 W/m2 CLR
16:49 14.2 °F -0.7 °F 1021.7 in WSW 20.4 mph 11.4 mph 36 % 0.0 in 132.00 W/m2 CLR
16:53 14.1 °F -0.4 °F 1021.9 in WSW 14.8 mph 6.0 mph 37 % 0.0 in 111.00 W/m2 CLR
16:59 14.1 °F -0.4 °F 1021.9 in WSW 9.7 mph 7.6 mph 37 % 0.0 in 102.00 W/m2 CLR
17:04 14.1 °F -0.4 °F 1022.0 in WSW 13.0 mph 8.4 mph 37 % 0.0 in 76.00 W/m2 CLR
17:08 13.9 °F -0.6 °F 1022.0 in WSW 9.7 mph 6.6 mph 37 % 0.0 in 62.00 W/m2 CLR
17:14 13.8 °F -0.6 °F 1022.2 in West 8.0 mph 6.3 mph 37 % 0.0 in 47.00 W/m2 CLR
17:19 13.7 °F -0.4 °F 1022.2 in West 6.4 mph 3.9 mph 38 % 0.0 in 25.00 W/m2 CLR
17:23 13.4 °F -0.3 °F 1022.2 in SW 9.7 mph 7.2 mph 39 % 0.0 in 19.00 W/m2 CLR
17:29 13.2 °F -0.8 °F 1022.3 in NNW 11.3 mph 7.2 mph 38 % 0.0 in 12.00 W/m2 CLR
17:34 12.9 °F -1.1 °F 1022.3 in West 6.4 mph 3.9 mph 38 % 0.0 in 11.00 W/m2 CLR
17:38 12.8 °F -0.8 °F 1022.5 in West 8.0 mph 5.3 mph 39 % 0.0 in 7.00 W/m2 CLR
17:44 12.6 °F -1.3 °F 1022.6 in NW 5.6 mph 1.6 mph 38 % 0.0 in 0.00 W/m2 CLR
17:49 12.5 °F -1.1 °F 1022.8 in NW 5.6 mph 3.1 mph 39 % 0.0 in 0.00 W/m2 CLR
17:54 12.4 °F -1.2 °F 1022.8 in WNW 5.6 mph 3.4 mph 39 % 0.0 in 0.00 W/m2 CLR
17:58 12.2 °F -1.3 °F 1022.9 in WNW 3.7 mph 1.8 mph 39 % 0.0 in 0.00 W/m2 CLR
18:03 12.1 °F -1.5 °F 1023.0 in West 3.7 mph 1.1 mph 39 % 0.0 in 0.00 W/m2 CLR
18:08 12.0 °F -1.2 °F 1023.2 in SE 6.4 mph 4.8 mph 40 % 0.0 in 0.00 W/m2 CLR
18:13 11.8 °F -1.4 °F 1023.3 in ESE 5.6 mph 2.9 mph 40 % 0.0 in 0.00 W/m2 CLR
18:18 11.4 °F -1.1 °F 1023.5 in ESE 3.7 mph 1.4 mph 42 % 0.0 in 0.00 W/m2 CLR
18:24 11.3 °F -1.2 °F 1023.5 in ESE 3.7 mph 2.4 mph 42 % 0.0 in 0.00 W/m2 CLR
18:28 11.2 °F -1.3 °F 1023.4 in SW 5.6 mph 3.9 mph 42 % 0.0 in 0.00 W/m2 CLR
18:33 11.1 °F -1.3 °F 1023.6 in WSW 3.7 mph 1.3 mph 42 % 0.0 in 0.00 W/m2 CLR
18:39 11.1 °F -1.1 °F 1023.8 in SSE 6.4 mph 5.6 mph 43 % 0.0 in 0.00 W/m2 CLR
18:43 10.8 °F -0.9 °F 1023.8 in SE 6.4 mph 5.0 mph 44 % 0.0 in 0.00 W/m2 CLR
18:48 10.4 °F -1.3 °F 1023.8 in SSE 5.6 mph 3.5 mph 44 % 0.0 in 0.00 W/m2 CLR
18:54 10.3 °F -1.4 °F 1023.9 in SSE 3.7 mph 2.1 mph 44 % 0.0 in 0.00 W/m2 CLR
18:58 10.3 °F -1.2 °F 1024.0 in SSE 3.7 mph 2.9 mph 45 % 0.0 in 0.00 W/m2 CLR
19:03 10.3 °F -1.8 °F 1024.1 in SSE 6.4 mph 5.1 mph 43 % 0.0 in 0.00 W/m2 CLR
19:09 10.3 °F -1.4 °F 1024.1 in SW 5.6 mph 3.9 mph 44 % 0.0 in 0.00 W/m2 CLR
19:13 10.3 °F -1.4 °F 1024.2 in SW 1.9 mph 1.4 mph 44 % 0.0 in 0.00 W/m2 CLR
19:19 10.3 °F -1.4 °F 1024.3 in SW 3.7 mph 1.4 mph 44 % 0.0 in 0.00 W/m2 CLR
19:24 10.1 °F -0.8 °F 1024.4 in ENE 5.6 mph 2.9 mph 47 % 0.0 in 0.00 W/m2 CLR
19:28 9.6 °F -0.9 °F 1024.5 in ENE 5.6 mph 2.9 mph 48 % 0.0 in 0.00 W/m2 CLR
19:34 9.2 °F -1.0 °F 1024.6 in ENE 5.6 mph 4.0 mph 49 % 0.0 in 0.00 W/m2 CLR
19:39 9.1 °F -0.8 °F 1024.6 in East 8.0 mph 4.2 mph 50 % 0.0 in 0.00 W/m2 CLR
19:43 9.0 °F -0.9 °F 1024.6 in ESE 5.6 mph 4.0 mph 50 % 0.0 in 0.00 W/m2 CLR
19:49 8.9 °F -0.7 °F 1024.7 in ESE 5.6 mph 3.4 mph 51 % 0.0 in 0.00 W/m2 CLR
19:54 8.8 °F -0.8 °F 1024.7 in ESE 5.6 mph 3.9 mph 51 % 0.0 in 0.00 W/m2 CLR
19:58 8.8 °F -0.8 °F 1024.9 in SE 6.4 mph 4.5 mph 51 % 0.0 in 0.00 W/m2 CLR
20:04 8.8 °F -0.6 °F 1024.9 in SE 8.0 mph 6.3 mph 52 % 0.0 in 0.00 W/m2 CLR
20:09 8.7 °F -0.7 °F 1024.9 in SSE 9.3 mph 5.0 mph 52 % 0.0 in 0.00 W/m2 CLR
20:13 8.6 °F -0.8 °F 1024.9 in SE 7.4 mph 4.8 mph 52 % 0.0 in 0.00 W/m2 CLR
20:19 8.4 °F -0.8 °F 1025.1 in SSE 8.0 mph 5.3 mph 52 % 0.0 in 0.00 W/m2 CLR
20:24 8.3 °F -0.7 °F 1025.2 in SE 11.3 mph 8.0 mph 53 % 0.0 in 0.00 W/m2 CLR
20:28 8.3 °F -0.8 °F 1025.3 in South 11.1 mph 7.4 mph 53 % 0.0 in 0.00 W/m2 CLR
20:33 8.2 °F -0.8 °F 1025.4 in SSE 9.7 mph 6.0 mph 53 % 0.0 in 0.00 W/m2 CLR
20:38 8.2 °F -0.8 °F 1025.5 in SSE 8.0 mph 4.8 mph 53 % 0.0 in 0.00 W/m2 CLR
20:43 8.2 °F -0.8 °F 1025.7 in SSE 6.4 mph 4.0 mph 53 % 0.0 in 0.00 W/m2 CLR
20:48 8.1 °F -0.9 °F 1025.8 in SSE 5.6 mph 3.9 mph 53 % 0.0 in 0.00 W/m2 CLR
20:53 7.9 °F -1.1 °F 1025.9 in SSE 6.4 mph 4.7 mph 53 % 0.0 in 0.00 W/m2 CLR
20:58 7.8 °F -1.2 °F 1026.0 in SW 7.4 mph 5.3 mph 53 % 0.0 in 0.00 W/m2 CLR
21:03 7.8 °F -0.9 °F 1026.0 in SW 8.0 mph 7.4 mph 54 % 0.0 in 0.00 W/m2 CLR
21:08 7.8 °F -1.2 °F 1026.1 in SW 5.6 mph 4.0 mph 53 % 0.0 in 0.00 W/m2 CLR
21:14 7.8 °F -1.2 °F 1026.2 in SW 6.4 mph 4.2 mph 53 % 0.0 in 0.00 W/m2 CLR
21:18 7.8 °F -1.4 °F 1026.3 in SW 6.4 mph 3.9 mph 52 % 0.0 in 0.00 W/m2 CLR
21:23 7.8 °F -1.4 °F 1026.4 in SSW 5.6 mph 3.2 mph 52 % 0.0 in 0.00 W/m2 CLR
21:29 7.8 °F -1.4 °F 1026.5 in SSW 5.6 mph 2.6 mph 52 % 0.0 in 0.00 W/m2 CLR
21:33 7.9 °F -1.6 °F 1026.5 in SSW 1.9 mph 0.8 mph 51 % 0.0 in 0.00 W/m2 CLR
21:38 7.9 °F -1.6 °F 1026.6 in SSW 4.8 mph 3.1 mph 51 % 0.0 in 0.00 W/m2 CLR
21:44 7.8 °F -1.7 °F 1026.7 in SSW 5.6 mph 4.0 mph 51 % 0.0 in 0.00 W/m2 CLR
21:48 7.7 °F -1.6 °F 1026.9 in East 8.0 mph 6.1 mph 52 % 0.0 in 0.00 W/m2 CLR
21:53 7.2 °F -1.6 °F 1027.2 in ENE 11.3 mph 7.7 mph 54 % 0.0 in 0.00 W/m2 CLR
21:59 6.9 °F -1.6 °F 1027.3 in East 11.3 mph 6.3 mph 55 % 0.0 in 0.00 W/m2 CLR
22:03 6.7 °F -1.4 °F 1027.5 in ESE 11.1 mph 7.7 mph 56 % 0.0 in 0.00 W/m2 CLR
22:09 6.6 °F -1.6 °F 1027.6 in East 9.7 mph 5.5 mph 56 % 0.0 in 0.00 W/m2 CLR
22:14 6.5 °F -1.4 °F 1027.6 in East 9.7 mph 5.5 mph 57 % 0.0 in 0.00 W/m2 CLR
22:18 6.4 °F -1.3 °F 1027.7 in East 7.4 mph 3.4 mph 58 % 0.0 in 0.00 W/m2 CLR
22:24 6.3 °F -1.3 °F 1027.8 in ENE 8.0 mph 5.6 mph 58 % 0.0 in 0.00 W/m2 CLR
22:29 6.3 °F -1.4 °F 1027.8 in ENE 6.4 mph 3.5 mph 58 % 0.0 in 0.00 W/m2 CLR
22:34 6.3 °F -1.2 °F 1028.0 in East 8.0 mph 4.7 mph 59 % 0.0 in 0.00 W/m2 CLR
22:39 6.3 °F -0.5 °F 1028.0 in East 8.0 mph 3.9 mph 62 % 0.0 in 0.00 W/m2 CLR
22:44 6.3 °F -1.2 °F 1028.1 in East 9.7 mph 5.6 mph 59 % 0.0 in 0.00 W/m2 CLR
22:49 6.3 °F -1.1 °F 1028.3 in ESE 5.6 mph 4.3 mph 59 % 0.0 in 0.00 W/m2 CLR
22:54 6.3 °F -1.1 °F 1028.4 in ESE 5.6 mph 3.1 mph 59 % 0.0 in 0.00 W/m2 CLR
22:59 6.3 °F -1.1 °F 1028.3 in ESE 8.0 mph 3.7 mph 59 % 0.0 in 0.00 W/m2 CLR
23:04 6.3 °F -1.2 °F 1028.3 in SE 8.0 mph 3.4 mph 59 % 0.0 in 0.00 W/m2 CLR
23:08 6.3 °F -1.2 °F 1028.4 in ESE 8.0 mph 5.5 mph 59 % 0.0 in 0.00 W/m2 CLR
23:13 6.3 °F -1.1 °F 1028.5 in ESE 9.3 mph 4.5 mph 59 % 0.0 in 0.00 W/m2 CLR
23:18 6.6 °F -0.9 °F 1028.8 in SE 13.0 mph 9.0 mph 59 % 0.0 in 0.00 W/m2 CLR
23:23 6.7 °F -0.8 °F 1028.8 in East 11.1 mph 5.6 mph 59 % 0.0 in 0.00 W/m2 CLR
23:28 6.7 °F -0.7 °F 1029.0 in ENE 11.1 mph 6.1 mph 59 % 0.0 in 0.00 W/m2 CLR
23:33 6.7 °F -0.8 °F 1029.1 in ENE 13.0 mph 6.0 mph 59 % 0.0 in 0.00 W/m2 CLR
23:38 6.6 °F -0.8 °F 1029.2 in ENE 13.0 mph 8.5 mph 59 % 0.0 in 0.00 W/m2 CLR
23:43 6.5 °F -0.7 °F 1029.2 in ENE 13.0 mph 6.6 mph 60 % 0.0 in 0.00 W/m2 CLR
23:48 6.4 °F -0.8 °F 1029.3 in ENE 12.9 mph 7.4 mph 60 % 0.0 in 0.00 W/m2 CLR
23:54 6.3 °F -0.9 °F 1029.4 in ENE 8.0 mph 5.5 mph 60 % 0.0 in 0.00 W/m2 CLR
23:58 6.2 °F -0.8 °F 1029.4 in ENE 16.1 mph 8.5 mph 61 % 0.0 in 0.00 W/m2 CLR
Juneau County Weather
Compliments of Weather Underground - 3.5 mb